createdAt,value
2022-10-17T00:01:29.300Z,51.07
2022-10-17T00:04:02.446Z,51.05
2022-10-17T00:06:32.355Z,50.99
2022-10-17T00:09:02.313Z,51.24
2022-10-17T00:11:32.195Z,51.21
2022-10-17T00:14:02.162Z,51.03
2022-10-17T00:16:37.284Z,51.31
2022-10-17T00:19:07.698Z,51.19
2022-10-17T00:21:37.537Z,51.17
2022-10-17T00:24:08.605Z,51.04
2022-10-17T00:26:38.882Z,51.01
2022-10-17T00:29:09.130Z,51.27
2022-10-17T00:31:41.632Z,51.32
2022-10-17T00:34:11.409Z,51.19
2022-10-17T00:36:41.332Z,51.32
2022-10-17T00:39:12.153Z,51.57
2022-10-17T00:41:42.437Z,51.52
2022-10-17T00:44:42.048Z,51.74
2022-10-17T00:47:18.719Z,51.71
2022-10-17T00:49:51.100Z,51.76
2022-10-17T00:52:26.778Z,51.52
2022-10-17T00:55:01.486Z,51.87
2022-10-17T00:57:35.768Z,51.96
2022-10-17T01:00:09.687Z,52.06
2022-10-17T01:02:42.406Z,52.01
2022-10-17T01:05:13.468Z,51.97
2022-10-17T01:07:47.742Z,51.98
2022-10-17T01:10:18.051Z,52.48
2022-10-17T01:13:09.174Z,52.33
2022-10-17T01:15:53.255Z,52.40
2022-10-17T01:18:38.123Z,52.22
2022-10-17T01:21:30.398Z,52.50
2022-10-17T01:24:30.245Z,52.10
2022-10-17T01:27:31.943Z,52.40
2022-10-17T01:30:25.298Z,52.39
2022-10-17T01:33:01.419Z,52.58
2022-10-17T01:35:38.595Z,52.46
2022-10-17T01:38:15.918Z,52.62
2022-10-17T01:40:52.344Z,52.19
2022-10-17T01:43:28.651Z,52.41
2022-10-17T01:46:04.756Z,52.24
2022-10-17T01:48:41.915Z,52.57
2022-10-17T01:51:18.870Z,52.50
2022-10-17T01:53:54.939Z,52.40
2022-10-17T01:56:28.754Z,52.58
2022-10-17T01:59:03.355Z,52.35
2022-10-17T02:01:37.063Z,52.21
2022-10-17T02:04:13.936Z,52.61
2022-10-17T02:06:46.244Z,52.39
2022-10-17T02:09:22.211Z,52.58
2022-10-17T02:12:13.357Z,52.67
2022-10-17T02:14:59.837Z,52.49
2022-10-17T02:17:41.537Z,52.47
2022-10-17T02:20:23.296Z,52.78
2022-10-17T02:22:59.394Z,52.76
2022-10-17T02:25:38.618Z,53.08
2022-10-17T02:28:22.463Z,53.24
2022-10-17T02:30:57.550Z,53.10
2022-10-17T02:33:32.268Z,53.32
2022-10-17T02:36:09.029Z,53.32
2022-10-17T02:38:39.535Z,53.04
2022-10-17T02:41:18.377Z,53.42
2022-10-17T02:43:51.401Z,53.73
2022-10-17T02:46:24.114Z,53.49
2022-10-17T02:48:56.273Z,53.94
2022-10-17T02:51:34.116Z,53.87
2022-10-17T02:54:10.314Z,53.99
2022-10-17T02:56:46.273Z,54.14
2022-10-17T02:59:20.362Z,54.07
2022-10-17T03:01:51.651Z,54.13
2022-10-17T03:04:22.719Z,54.63
2022-10-17T03:06:55.344Z,54.81
2022-10-17T03:09:26.320Z,55.08
2022-10-17T03:11:58.916Z,55.29
2022-10-17T03:14:28.673Z,55.49
2022-10-17T03:17:01.641Z,55.74
2022-10-17T03:19:31.462Z,55.90
2022-10-17T03:22:04.202Z,56.12
2022-10-17T03:24:35.659Z,56.28
2022-10-17T03:27:05.788Z,56.61
2022-10-17T03:29:35.756Z,56.73
2022-10-17T03:32:07.287Z,56.88
2022-10-17T03:34:37.676Z,57.18
2022-10-17T03:37:10.325Z,57.12
2022-10-17T03:39:42.420Z,56.69
2022-10-17T03:42:15.222Z,56.92
2022-10-17T03:44:45.248Z,57.09
2022-10-17T03:47:16.083Z,57.40
2022-10-17T03:49:47.374Z,57.51
2022-10-17T03:52:21.721Z,57.74
2022-10-17T03:54:52.662Z,57.77
2022-10-17T03:57:22.573Z,57.70
2022-10-17T03:59:54.217Z,58.13
2022-10-17T04:02:24.830Z,58.26
2022-10-17T04:04:55.414Z,58.49
2022-10-17T04:07:27.889Z,59.13
2022-10-17T04:09:57.829Z,59.05
2022-10-17T04:12:28.349Z,59.52
2022-10-17T04:14:58.386Z,59.27
2022-10-17T04:17:28.954Z,59.52
2022-10-17T04:19:58.778Z,59.60
2022-10-17T04:22:31.380Z,59.83
2022-10-17T04:25:01.384Z,59.84
2022-10-17T04:27:37.653Z,59.88
2022-10-17T04:30:08.748Z,59.77
2022-10-17T04:32:40.326Z,60.12
2022-10-17T04:35:22.608Z,59.81
2022-10-17T04:38:05.993Z,59.96
2022-10-17T04:40:35.780Z,60.05
2022-10-17T04:43:05.778Z,60.04
2022-10-17T04:45:39.152Z,60.10
2022-10-17T04:48:09.988Z,60.42
2022-10-17T04:50:39.909Z,60.18
2022-10-17T04:53:46.220Z,60.08
2022-10-17T04:56:19.425Z,60.28
2022-10-17T04:58:49.834Z,59.97
2022-10-17T05:01:22.021Z,60.24
2022-10-17T05:03:56.065Z,60.14
2022-10-17T05:06:28.311Z,60.14
2022-10-17T05:09:30.754Z,60.12
2022-10-17T05:12:01.104Z,60.13
2022-10-17T05:14:33.218Z,60.31
2022-10-17T05:17:03.629Z,60.49
2022-10-17T05:19:33.456Z,60.26
2022-10-17T05:22:03.368Z,60.23
2022-10-17T05:24:35.727Z,60.42
2022-10-17T05:27:06.550Z,60.58
2022-10-17T05:29:37.195Z,60.90
2022-10-17T05:32:16.167Z,60.75
2022-10-17T05:34:46.316Z,60.65
2022-10-17T05:37:16.476Z,60.47
2022-10-17T05:39:53.641Z,60.52
2022-10-17T05:42:23.572Z,60.85
2022-10-17T05:44:53.361Z,60.85
2022-10-17T05:47:23.311Z,60.83
2022-10-17T05:49:53.107Z,60.90
2022-10-17T05:52:33.002Z,60.68
2022-10-17T05:55:15.462Z,60.91
2022-10-17T05:57:45.524Z,60.93
2022-10-17T06:00:19.848Z,60.81
2022-10-17T06:02:58.285Z,60.73
2022-10-17T06:05:28.242Z,60.78
2022-10-17T06:08:01.915Z,61.10
2022-10-17T06:10:36.888Z,60.72
2022-10-17T06:13:07.201Z,61.39
2022-10-17T06:15:37.863Z,61.34
2022-10-17T06:18:10.590Z,60.38
2022-10-17T06:20:45.249Z,60.07
2022-10-17T06:23:17.283Z,59.62
2022-10-17T06:26:01.622Z,59.46
2022-10-17T06:28:32.598Z,59.27
2022-10-17T06:31:02.572Z,58.99
2022-10-17T06:33:32.583Z,59.27
2022-10-17T06:36:02.725Z,58.98
2022-10-17T06:38:34.163Z,58.98
2022-10-17T06:41:10.142Z,58.93
2022-10-17T06:43:40.924Z,58.99
2022-10-17T06:46:31.086Z,58.74
2022-10-17T06:49:04.742Z,58.84
2022-10-17T06:51:46.529Z,59.07
2022-10-17T06:54:19.064Z,59.27
2022-10-17T06:57:10.267Z,58.92
2022-10-17T06:59:53.411Z,59.31
2022-10-17T07:02:28.734Z,58.77
2022-10-17T07:05:01.642Z,58.83
2022-10-17T07:07:33.507Z,59.00
2022-10-17T07:10:04.378Z,58.77
2022-10-17T07:12:37.159Z,59.20
2022-10-17T07:15:07.895Z,58.85
2022-10-17T07:17:37.841Z,58.70
2022-10-17T07:20:08.567Z,58.13
2022-10-17T07:22:40.501Z,57.55
2022-10-17T07:25:12.209Z,57.19
2022-10-17T07:27:51.835Z,57.58
2022-10-17T07:30:21.838Z,57.39
2022-10-17T07:33:11.845Z,56.88
2022-10-17T07:35:43.698Z,57.46
2022-10-17T07:38:14.292Z,57.00
2022-10-17T07:40:48.353Z,56.59
2022-10-17T07:43:21.000Z,56.46
2022-10-17T07:45:51.094Z,56.27
2022-10-17T07:48:21.723Z,56.32
2022-10-17T07:50:53.764Z,56.82
2022-10-17T07:53:25.723Z,56.19
2022-10-17T07:55:55.547Z,57.12
2022-10-17T07:58:29.018Z,56.37
2022-10-17T08:03:52.649Z,54.66
2022-10-17T08:06:22.487Z,53.83
2022-10-17T08:08:52.461Z,53.42
2022-10-17T08:11:23.301Z,52.71
2022-10-17T08:13:58.963Z,52.90
2022-10-17T08:16:28.719Z,53.01
2022-10-17T08:18:58.831Z,52.47
2022-10-17T08:21:31.690Z,52.06
2022-10-17T08:24:02.858Z,51.90
2022-10-17T08:26:33.007Z,51.08
2022-10-17T08:29:05.555Z,51.07
2022-10-17T08:31:35.620Z,50.11
2022-10-17T08:34:05.509Z,49.85
2022-10-17T08:36:37.380Z,48.93
2022-10-17T08:39:07.904Z,48.54
2022-10-17T08:41:52.207Z,49.42
2022-10-17T08:44:37.065Z,49.28
2022-10-17T08:47:14.453Z,49.41
2022-10-17T08:49:52.676Z,48.26
2022-10-17T08:52:32.025Z,47.94
2022-10-17T08:55:01.973Z,47.05
2022-10-17T08:57:32.358Z,46.87
2022-10-17T09:00:05.569Z,46.83
2022-10-17T09:02:47.752Z,46.30
2022-10-17T09:05:39.891Z,45.69
2022-10-17T09:08:22.361Z,44.74
2022-10-17T09:11:00.169Z,43.88
2022-10-17T09:13:45.064Z,43.91
2022-10-17T09:16:37.308Z,43.23
2022-10-17T09:19:12.789Z,42.24
2022-10-17T09:21:49.196Z,41.47
2022-10-17T09:24:25.388Z,40.04
2022-10-17T09:26:57.360Z,39.86
2022-10-17T09:29:35.357Z,39.23
2022-10-17T09:32:17.796Z,37.84
2022-10-17T09:34:48.050Z,36.43
2022-10-17T09:37:19.995Z,35.30
2022-10-17T09:39:49.810Z,34.57
2022-10-17T09:42:23.703Z,33.58
2022-10-17T09:44:59.934Z,32.91
2022-10-17T09:47:42.015Z,33.51
2022-10-17T09:50:21.531Z,32.98
2022-10-17T09:52:51.941Z,32.27
2022-10-17T09:55:25.172Z,32.26
2022-10-17T09:57:58.348Z,32.48
2022-10-17T10:00:32.551Z,31.95
2022-10-17T10:03:19.176Z,31.42
2022-10-17T10:06:03.526Z,31.32
2022-10-17T10:08:35.445Z,30.32
2022-10-17T10:11:13.407Z,28.70
2022-10-17T10:13:45.103Z,28.24
2022-10-17T10:16:24.467Z,28.20
2022-10-17T10:18:56.819Z,27.85
2022-10-17T10:21:28.609Z,27.07
2022-10-17T10:24:14.651Z,26.57
2022-10-17T10:26:48.830Z,26.36
2022-10-17T10:29:30.826Z,28.17
2022-10-17T10:32:10.155Z,29.27
2022-10-17T10:34:53.534Z,30.55
2022-10-17T10:37:26.613Z,31.58
2022-10-17T10:39:59.373Z,32.76
2022-10-17T10:42:32.683Z,33.08
2022-10-17T10:45:09.419Z,31.98
2022-10-17T10:47:56.343Z,30.93
2022-10-17T10:50:36.334Z,28.80
2022-10-17T10:53:19.185Z,28.50
2022-10-17T10:55:53.525Z,26.64
2022-10-17T10:58:40.288Z,25.68
2022-10-17T11:01:20.928Z,25.19
2022-10-17T11:04:00.464Z,24.82
2022-10-17T11:06:38.799Z,24.15
2022-10-17T11:09:20.203Z,24.37
2022-10-17T11:11:58.455Z,24.58
2022-10-17T11:14:41.156Z,23.70
2022-10-17T11:17:22.607Z,22.64
2022-10-17T11:19:59.564Z,22.97
2022-10-17T11:22:35.324Z,23.45
2022-10-17T11:25:15.817Z,24.59
2022-10-17T11:27:45.577Z,27.02
2022-10-17T11:30:18.260Z,26.80
2022-10-17T11:32:53.853Z,25.58
2022-10-17T11:35:28.844Z,24.49
2022-10-17T11:38:21.399Z,24.20
2022-10-17T11:40:54.375Z,23.08
2022-10-17T11:43:29.506Z,23.72
2022-10-17T11:46:04.982Z,23.54
2022-10-17T11:48:41.733Z,24.11
2022-10-17T11:54:09.454Z,24.37
2022-10-17T11:56:47.486Z,24.03
2022-10-17T11:59:45.271Z,22.97
2022-10-17T12:02:24.640Z,22.89
2022-10-17T12:05:02.324Z,23.28
2022-10-17T12:07:41.037Z,24.60
2022-10-17T12:10:24.970Z,25.80
2022-10-17T12:12:54.835Z,26.29
2022-10-17T12:15:33.915Z,26.48
2022-10-17T12:18:05.318Z,25.91
2022-10-17T12:20:38.336Z,24.43
2022-10-17T12:23:29.521Z,24.15
2022-10-17T12:26:05.421Z,25.09
2022-10-17T12:28:43.542Z,24.86
2022-10-17T12:31:32.543Z,23.51
2022-10-17T12:34:05.805Z,22.52
2022-10-17T12:36:50.635Z,21.46
2022-10-17T12:39:55.210Z,21.96
2022-10-17T12:42:50.764Z,22.28
2022-10-17T12:45:48.585Z,23.63
2022-10-17T12:48:48.245Z,25.70
2022-10-17T12:51:37.329Z,28.32
2022-10-17T12:54:15.231Z,28.72
2022-10-17T12:56:47.301Z,29.98
2022-10-17T12:59:24.071Z,31.86
2022-10-17T13:01:58.260Z,33.34
2022-10-17T13:04:31.181Z,34.33
2022-10-17T13:07:02.556Z,34.53
2022-10-17T13:09:35.388Z,35.39
2022-10-17T13:12:09.490Z,35.91
2022-10-17T13:14:46.379Z,36.40
2022-10-17T13:17:26.032Z,36.74
2022-10-17T13:19:56.530Z,36.92
2022-10-17T13:22:28.913Z,37.04
2022-10-17T13:25:10.016Z,36.15
2022-10-17T13:27:40.381Z,36.17
2022-10-17T13:30:32.148Z,36.99
2022-10-17T13:33:02.699Z,36.59
2022-10-17T13:35:58.892Z,37.58
2022-10-17T13:38:29.728Z,38.55
2022-10-17T13:41:06.089Z,38.80
2022-10-17T13:43:50.566Z,39.17
2022-10-17T13:46:39.959Z,38.38
2022-10-17T13:49:25.860Z,37.54
2022-10-17T13:51:58.853Z,37.52
2022-10-17T13:54:38.034Z,37.23
2022-10-17T13:57:09.672Z,37.56
2022-10-17T13:59:42.803Z,37.49
2022-10-17T14:02:19.984Z,37.71
2022-10-17T14:05:15.629Z,38.13
2022-10-17T14:08:09.393Z,39.21
2022-10-17T14:10:36.994Z,38.62
2022-10-17T14:13:09.051Z,38.30
2022-10-17T14:15:39.999Z,37.84
2022-10-17T14:18:21.655Z,37.68
2022-10-17T14:21:34.323Z,38.11
2022-10-17T14:23:45.201Z,38.15
2022-10-17T14:26:18.340Z,38.01
2022-10-17T14:28:51.103Z,38.09
2022-10-17T14:31:32.493Z,38.11
2022-10-17T14:34:07.550Z,37.86
2022-10-17T14:36:42.077Z,37.78
2022-10-17T14:39:22.432Z,38.30
2022-10-17T14:41:53.808Z,38.64
2022-10-17T14:44:28.561Z,38.69
2022-10-17T14:47:18.370Z,39.26
2022-10-17T14:50:06.704Z,39.12
2022-10-17T14:52:38.967Z,39.27
2022-10-17T14:55:26.012Z,39.33
2022-10-17T14:57:55.735Z,39.23
2022-10-17T15:00:26.881Z,39.48
2022-10-17T15:02:58.264Z,39.48
2022-10-17T15:05:30.686Z,39.67
2022-10-17T15:08:00.532Z,39.38
2022-10-17T15:10:37.097Z,39.78
2022-10-17T15:13:27.303Z,40.36
2022-10-17T15:15:57.244Z,40.31
2022-10-17T15:18:27.060Z,40.21
2022-10-17T15:21:06.468Z,40.14
2022-10-17T15:23:47.503Z,40.42
2022-10-17T15:26:19.001Z,40.70
2022-10-17T15:28:50.205Z,40.66
2022-10-17T15:31:21.612Z,40.55
2022-10-17T15:33:52.238Z,40.70
2022-10-17T15:36:27.641Z,41.08
2022-10-17T15:38:59.830Z,41.04
2022-10-17T15:41:32.324Z,41.11
2022-10-17T15:44:02.678Z,40.93
2022-10-17T15:46:35.544Z,41.05
2022-10-17T15:49:08.664Z,41.74
2022-10-17T15:51:41.306Z,41.96
2022-10-17T15:54:14.155Z,41.99
2022-10-17T15:56:46.301Z,42.16
2022-10-17T15:59:19.768Z,42.49
2022-10-17T16:01:49.820Z,42.50
2022-10-17T16:04:19.933Z,43.25
2022-10-17T16:06:52.430Z,42.84
2022-10-17T16:09:22.430Z,42.82
2022-10-17T16:12:01.536Z,43.46
2022-10-17T16:14:32.514Z,43.32
2022-10-17T16:17:02.993Z,43.46
2022-10-17T16:19:35.066Z,43.62
2022-10-17T16:22:08.225Z,43.65
2022-10-17T16:24:40.372Z,43.96
2022-10-17T16:27:11.258Z,43.95
2022-10-17T16:29:42.008Z,44.15
2022-10-17T16:32:13.136Z,44.48
2022-10-17T16:34:43.044Z,44.50
2022-10-17T16:37:15.405Z,44.74
2022-10-17T16:39:49.181Z,45.28
2022-10-17T16:42:19.105Z,45.10
2022-10-17T16:44:49.273Z,45.29
2022-10-17T16:47:19.403Z,45.30
2022-10-17T16:49:49.397Z,45.91
2022-10-17T16:52:21.865Z,45.88
2022-10-17T16:54:51.903Z,45.86
2022-10-17T16:57:21.953Z,46.32
2022-10-17T16:59:52.195Z,46.02
2022-10-17T17:02:21.975Z,46.67
2022-10-17T17:04:51.848Z,46.79
2022-10-17T17:07:24.606Z,46.62
2022-10-17T17:09:57.098Z,46.83
2022-10-17T17:12:27.097Z,47.05
2022-10-17T17:14:57.038Z,46.62
2022-10-17T17:17:37.065Z,47.13
2022-10-17T17:20:16.846Z,47.03
2022-10-17T17:22:50.902Z,47.21
2022-10-17T17:25:20.706Z,47.72
2022-10-17T17:27:50.475Z,47.49
2022-10-17T17:30:20.720Z,47.02
2022-10-17T17:32:50.610Z,47.07
2022-10-17T17:35:20.913Z,47.14
2022-10-17T17:37:53.213Z,46.84
2022-10-17T17:40:23.149Z,47.03
2022-10-17T17:42:52.992Z,47.15
2022-10-17T17:45:22.782Z,46.77
2022-10-17T17:47:53.968Z,47.27
2022-10-17T17:50:23.833Z,47.20
2022-10-17T17:52:56.188Z,47.11
2022-10-17T17:55:25.949Z,46.81
2022-10-17T17:57:56.679Z,47.04
2022-10-17T18:00:26.572Z,46.76
2022-10-17T18:02:56.426Z,46.94
2022-10-17T18:05:47.384Z,47.05
2022-10-17T18:08:27.778Z,46.86
2022-10-17T18:10:58.795Z,46.64
2022-10-17T18:13:28.661Z,47.05
2022-10-17T18:15:59.688Z,47.37
2022-10-17T18:18:31.239Z,47.14
2022-10-17T18:21:04.210Z,46.92
2022-10-17T18:23:40.229Z,46.91
2022-10-17T18:26:10.525Z,47.03
2022-10-17T18:31:35.875Z,47.01
2022-10-17T18:34:07.429Z,47.01
2022-10-17T18:36:38.016Z,47.31
2022-10-17T18:39:10.531Z,47.63
2022-10-17T18:41:40.679Z,47.54
2022-10-17T18:44:12.404Z,47.69
2022-10-17T18:46:43.090Z,47.65
2022-10-17T18:49:15.204Z,47.62
2022-10-17T18:51:48.668Z,47.17
2022-10-17T18:54:24.553Z,47.33
2022-10-17T18:56:56.474Z,47.05
2022-10-17T18:59:26.265Z,47.08
2022-10-17T19:01:56.309Z,47.55
2022-10-17T19:04:26.288Z,47.48
2022-10-17T19:06:56.101Z,47.50
2022-10-17T19:09:28.863Z,47.48
2022-10-17T19:12:00.244Z,47.16
2022-10-17T19:14:31.448Z,47.14
2022-10-17T19:17:02.501Z,46.99
2022-10-17T19:19:32.539Z,47.24
2022-10-17T19:22:03.679Z,47.00
2022-10-17T19:24:36.022Z,47.21
2022-10-17T19:27:06.904Z,47.38
2022-10-17T19:29:36.814Z,47.39
2022-10-17T19:32:14.117Z,47.69
2022-10-17T19:34:46.663Z,47.32
2022-10-17T19:37:16.429Z,47.38
2022-10-17T19:39:48.753Z,47.56
2022-10-17T19:42:18.461Z,47.38
2022-10-17T19:44:48.633Z,47.70
2022-10-17T19:47:18.374Z,47.49
2022-10-17T19:49:50.147Z,47.35
2022-10-17T19:52:20.026Z,47.66
2022-10-17T19:54:52.426Z,47.40
2022-10-17T19:57:22.137Z,47.39
2022-10-17T19:59:53.745Z,47.91
2022-10-17T20:02:26.126Z,47.54
2022-10-17T20:05:13.818Z,47.62
2022-10-17T20:07:45.669Z,48.40
2022-10-17T20:10:19.005Z,48.40
2022-10-17T20:12:48.994Z,48.30
2022-10-17T20:15:18.983Z,47.87
2022-10-17T20:17:48.826Z,47.85
2022-10-17T20:20:18.730Z,48.27
2022-10-17T20:22:48.476Z,47.73
2022-10-17T20:25:20.932Z,48.13
2022-10-17T20:27:50.731Z,48.11
2022-10-17T20:30:20.658Z,47.87
2022-10-17T20:32:55.149Z,48.37
2022-10-17T20:35:25.906Z,48.27
2022-10-17T20:37:55.673Z,48.18
2022-10-17T20:40:35.852Z,48.61
2022-10-17T20:43:06.659Z,48.82
2022-10-17T20:45:50.728Z,48.74
2022-10-17T20:48:21.767Z,48.74
2022-10-17T20:50:52.184Z,48.48
2022-10-17T20:53:36.532Z,48.72
2022-10-17T20:56:12.383Z,48.75
2022-10-17T20:58:42.174Z,48.28
2022-10-17T21:01:13.337Z,48.55
2022-10-17T21:03:46.375Z,48.23
2022-10-17T21:06:17.115Z,48.43
2022-10-17T21:08:47.732Z,48.66
2022-10-17T21:11:21.635Z,48.67
2022-10-17T21:13:57.341Z,48.47
2022-10-17T21:16:27.722Z,48.41
2022-10-17T21:18:58.276Z,48.18
2022-10-17T21:21:29.783Z,48.36
2022-10-17T21:24:01.619Z,48.43
2022-10-17T21:26:37.009Z,48.44
2022-10-17T21:29:07.876Z,48.40
2022-10-17T21:31:40.192Z,48.71
2022-10-17T21:34:11.533Z,48.69
2022-10-17T21:36:42.275Z,48.90
2022-10-17T21:39:13.438Z,48.54
2022-10-17T21:41:47.194Z,48.95
2022-10-17T21:44:19.463Z,49.20
2022-10-17T21:46:50.026Z,48.88
2022-10-17T21:49:22.238Z,48.98
2022-10-17T21:51:52.554Z,49.00
2022-10-17T21:54:24.046Z,49.11
2022-10-17T21:56:56.550Z,48.98
2022-10-17T21:59:26.489Z,48.72
2022-10-17T22:01:56.291Z,48.66
2022-10-17T22:04:28.334Z,49.40
2022-10-17T22:06:58.215Z,49.45
2022-10-17T22:09:28.763Z,49.37
2022-10-17T22:12:01.108Z,49.36
2022-10-17T22:14:31.229Z,48.70
2022-10-17T22:17:01.521Z,48.58
2022-10-17T22:19:31.239Z,48.36
2022-10-17T22:22:01.048Z,48.95
2022-10-17T22:24:33.170Z,49.09
2022-10-17T22:27:09.207Z,49.11
2022-10-17T22:29:39.697Z,49.09
2022-10-17T22:32:09.731Z,48.91
2022-10-17T22:34:39.598Z,48.97
2022-10-17T22:37:09.515Z,49.01
2022-10-17T22:39:39.402Z,49.06
2022-10-17T22:42:12.038Z,50.08
2022-10-17T22:44:41.844Z,49.90
2022-10-17T22:47:11.744Z,50.14
2022-10-17T22:49:41.539Z,50.45
2022-10-17T22:52:11.278Z,50.49
2022-10-17T22:54:41.008Z,50.29
2022-10-17T22:57:13.904Z,50.34
2022-10-17T22:59:43.878Z,49.62
2022-10-17T23:02:13.705Z,49.67
2022-10-17T23:04:46.963Z,50.01
2022-10-17T23:07:17.127Z,49.78
2022-10-17T23:09:49.849Z,50.17
2022-10-17T23:12:22.522Z,49.96
2022-10-17T23:14:52.289Z,49.82
2022-10-17T23:17:22.087Z,50.07
2022-10-17T23:19:54.162Z,50.25
2022-10-17T23:22:26.863Z,49.95
2022-10-17T23:24:56.544Z,49.77
2022-10-17T23:29:59.925Z,50.27
2022-10-17T23:32:29.811Z,49.90
2022-10-17T23:34:59.767Z,49.91
2022-10-17T23:37:29.673Z,49.89
2022-10-17T23:39:59.552Z,50.17
2022-10-17T23:42:31.843Z,50.34
2022-10-17T23:45:01.762Z,50.32
2022-10-17T23:47:31.724Z,50.58
2022-10-17T23:50:01.731Z,50.63
2022-10-17T23:52:31.572Z,50.64
2022-10-17T23:55:01.416Z,50.40
2022-10-17T23:57:34.259Z,50.58
